Time;durP1;ratioP1;P1;durP2;ratioP2;P2;SDS_P1;SDS_P2;PMS_P1;PMS_P2;Temp;Humidity;BMP_temperature;BMP_pressure;BME280_temperature;BME280_humidity;BME280_pressure;Samples;Min_cycle;Max_cycle;Signal;HPM_P1;HPM_P2
2022/07/02 00:00:25;;;;;;;3.90;2.33;;;15.10;89.60;;;;;;5071895;28;20947;-64
2022/07/02 00:02:55;;;;;;;4.30;2.63;;;15.00;90.50;;;;;;5070892;28;20463;-63
2022/07/02 00:05:23;;;;;;;4.17;3.17;;;15.00;91.30;;;;;;5068909;28;20542;-64
2022/07/02 00:07:51;;;;;;;3.63;3.00;;;15.00;91.40;;;;;;5071786;28;20506;-64
2022/07/02 00:10:20;;;;;;;3.63;3.00;;;14.90;92.00;;;;;;5072106;28;20504;-64
2022/07/02 00:12:48;;;;;;;3.53;3.23;;;14.90;92.50;;;;;;5069650;28;21025;-64
2022/07/02 00:15:16;;;;;;;3.77;3.37;;;14.90;93.10;;;;;;5071442;28;20581;-64
2022/07/02 00:17:44;;;;;;;3.73;3.43;;;14.80;93.60;;;;;;5071491;28;20830;-63
2022/07/02 00:20:12;;;;;;;4.03;3.63;;;14.80;94.20;;;;;;5071663;28;20517;-64
2022/07/02 00:22:41;;;;;;;3.10;2.90;;;14.80;94.70;;;;;;5071421;28;20467;-64
2022/07/02 00:25:09;;;;;;;3.47;3.00;;;14.80;95.10;;;;;;5072447;28;20462;-64
2022/07/02 00:27:40;;;;;;;5.57;3.20;;;14.70;95.30;;;;;;5075637;28;20570;-64
2022/07/02 00:30:09;;;;;;;6.63;3.20;;;14.70;95.50;;;;;;5075850;28;20459;-64
2022/07/02 00:32:37;;;;;;;5.20;3.23;;;14.70;95.70;;;;;;5075588;28;20502;-64
2022/07/02 00:35:07;;;;;;;5.50;3.23;;;14.60;95.80;;;;;;5074221;28;20479;-64
2022/07/02 00:37:35;;;;;;;2.90;2.70;;;14.60;96.00;;;;;;5075796;28;20574;-63
2022/07/02 00:40:04;;;;;;;3.20;2.40;;;14.60;96.20;;;;;;5074446;28;20471;-63
2022/07/02 00:42:32;;;;;;;4.23;2.60;;;14.50;96.20;;;;;;5075313;28;20467;-64
2022/07/02 00:45:00;;;;;;;3.37;3.03;;;14.50;96.30;;;;;;5075903;28;20494;-63
2022/07/02 00:47:29;;;;;;;4.93;4.27;;;14.40;96.30;;;;;;5074621;28;20486;-63
2022/07/02 00:49:56;;;;;;;4.90;4.50;;;14.40;96.30;;;;;;5075444;28;20490;-63
2022/07/02 00:52:24;;;;;;;6.80;3.80;;;14.30;96.40;;;;;;5074781;28;20525;-63
2022/07/02 00:54:51;;;;;;;5.50;4.10;;;14.30;96.60;;;;;;5075523;28;20997;-63
2022/07/02 00:57:21;;;;;;;7.47;3.83;;;14.20;96.70;;;;;;5075524;28;20875;-63
2022/07/02 00:59:48;;;;;;;3.90;2.90;;;14.20;97.00;;;;;;5075066;28;20494;-63
2022/07/02 01:02:16;;;;;;;3.07;2.77;;;14.10;97.20;;;;;;5075023;28;20459;-63
2022/07/02 01:04:46;;;;;;;4.10;3.30;;;14.10;97.30;;;;;;5078140;28;20463;-62
2022/07/02 01:07:14;;;;;;;3.30;2.93;;;14.10;97.40;;;;;;5076716;28;20478;-63
2022/07/02 01:12:30;;;;;;;4.10;3.07;;;14.10;97.60;;;;;;5077400;28;20505;-64
2022/07/02 01:14:58;;;;;;;3.77;2.63;;;14.00;97.60;;;;;;5075724;28;20482;-64
2022/07/02 01:17:25;;;;;;;3.60;2.73;;;14.00;97.80;;;;;;5073401;28;20533;-63
2022/07/02 01:19:53;;;;;;;2.60;2.37;;;14.00;98.00;;;;;;5075640;28;20896;-63
2022/07/02 01:22:23;;;;;;;4.23;2.50;;;14.00;98.10;;;;;;5074432;28;20463;-63
2022/07/02 01:24:52;;;;;;;3.13;2.87;;;14.00;98.30;;;;;;5075012;28;20459;-64
2022/07/02 01:27:20;;;;;;;3.53;3.23;;;14.00;98.50;;;;;;5075008;28;20890;-64
2022/07/02 01:29:48;;;;;;;5.00;3.87;;;14.00;98.70;;;;;;5074338;28;20898;-63
2022/07/02 01:32:16;;;;;;;5.23;3.27;;;13.90;99.00;;;;;;5073936;28;20874;-63
2022/07/02 01:34:44;;;;;;;5.70;3.53;;;13.90;99.10;;;;;;5074301;28;20516;-64
2022/07/02 01:37:14;;;;;;;4.23;3.83;;;13.80;99.40;;;;;;5072908;28;20536;-64
2022/07/02 01:39:43;;;;;;;5.57;4.40;;;13.80;99.60;;;;;;5074746;28;20597;-64
2022/07/02 01:42:11;;;;;;;5.73;5.23;;;13.80;99.90;;;;;;5074936;28;20525;-64
2022/07/02 01:44:39;;;;;;;5.00;4.50;;;13.70;99.90;;;;;;5073290;28;20517;-64
2022/07/02 01:47:09;;;;;;;7.10;4.63;;;13.70;99.90;;;;;;5074404;28;20544;-64
2022/07/02 01:49:37;;;;;;;5.73;3.80;;;13.70;99.90;;;;;;5074020;28;20508;-64
2022/07/02 01:52:05;;;;;;;4.33;3.83;;;13.60;99.90;;;;;;5074625;28;21005;-64
2022/07/02 01:54:33;;;;;;;5.60;3.80;;;13.60;99.90;;;;;;5075104;28;20462;-63
2022/07/02 01:57:02;;;;;;;6.00;3.77;;;13.60;99.90;;;;;;5078750;28;21036;-64
2022/07/02 01:59:30;;;;;;;5.60;5.10;;;13.50;99.90;;;;;;5072748;28;20540;-64
2022/07/02 02:01:57;;;;;;;6.47;3.87;;;13.50;99.90;;;;;;5061074;28;21012;-63
2022/07/02 02:04:24;;;;;;;5.60;5.10;;;13.50;99.90;;;;;;5073707;28;20513;-63
2022/07/02 02:06:52;;;;;;;5.90;4.57;;;13.50;99.90;;;;;;5074140;28;20479;-63
2022/07/02 02:09:19;;;;;;;5.50;4.67;;;13.50;99.90;;;;;;5072481;28;20464;-64
2022/07/02 02:11:46;;;;;;;4.17;3.87;;;13.40;99.90;;;;;;5073938;28;20462;-64
2022/07/02 02:14:16;;;;;;;4.70;4.30;;;13.40;99.90;;;;;;5072472;28;20463;-63
2022/07/02 02:16:43;;;;;;;4.20;3.90;;;13.40;99.90;;;;;;5072736;28;20491;-64
2022/07/02 02:19:11;;;;;;;5.37;4.97;;;13.30;99.90;;;;;;5073851;28;20459;-64
2022/07/02 02:21:38;;;;;;;9.70;3.90;;;13.30;99.90;;;;;;5073552;28;20528;-64
2022/07/02 02:24:06;;;;;;;4.63;4.20;;;13.30;99.90;;;;;;5074201;28;20524;-65
2022/07/02 02:26:33;;;;;;;4.40;4.00;;;13.30;99.90;;;;;;5073289;28;21044;-63
2022/07/02 02:29:01;;;;;;;4.33;4.03;;;13.30;99.90;;;;;;5068793;28;20466;-64
2022/07/02 02:31:30;;;;;;;4.97;4.57;;;13.20;99.90;;;;;;5073450;28;20841;-64
2022/07/02 02:33:57;;;;;;;4.47;4.07;;;13.20;99.90;;;;;;5073945;28;20978;-63
2022/07/02 02:36:25;;;;;;;4.63;4.23;;;13.20;99.90;;;;;;5073746;28;20616;-63
2022/07/02 02:38:52;;;;;;;5.50;3.93;;;13.10;99.90;;;;;;5073861;28;20918;-65
2022/07/02 02:41:19;;;;;;;11.00;4.43;;;13.10;99.90;;;;;;5072427;28;20525;-65
2022/07/02 02:43:47;;;;;;;5.03;4.63;;;13.10;99.90;;;;;;5073725;28;20455;-64
2022/07/02 02:46:14;;;;;;;7.73;5.50;;;13.00;99.90;;;;;;5073736;28;20563;-64
2022/07/02 02:48:43;;;;;;;5.23;4.70;;;13.00;99.90;;;;;;5072442;28;20491;-64
2022/07/02 02:51:13;;;;;;;4.80;4.30;;;12.90;99.90;;;;;;5069643;28;20857;-63
2022/07/02 02:53:42;;;;;;;4.70;4.30;;;12.90;99.90;;;;;;5073248;28;20455;-64
2022/07/02 02:56:10;;;;;;;4.00;3.60;;;12.90;99.90;;;;;;5072632;28;20498;-63
2022/07/02 02:58:37;;;;;;;4.80;4.40;;;12.90;99.90;;;;;;5072327;28;20493;-63
2022/07/02 03:01:05;;;;;;;5.53;4.70;;;12.90;99.90;;;;;;5071944;28;20459;-64
2022/07/02 03:03:32;;;;;;;6.73;4.00;;;12.90;99.90;;;;;;5072719;28;20451;-64
2022/07/02 03:06:01;;;;;;;5.00;4.60;;;12.90;99.90;;;;;;5073950;28;21006;-64
2022/07/02 03:08:29;;;;;;;4.93;4.33;;;12.90;99.90;;;;;;5072329;28;20468;-63
2022/07/02 03:10:56;;;;;;;5.10;4.47;;;12.90;99.90;;;;;;5057218;28;20459;-64
2022/07/02 03:13:23;;;;;;;5.40;4.93;;;12.90;99.90;;;;;;5073411;28;20513;-64
2022/07/02 03:15:52;;;;;;;4.43;4.00;;;12.90;99.90;;;;;;5072598;28;20547;-64
2022/07/02 03:18:19;;;;;;;5.40;4.90;;;12.90;99.90;;;;;;5072790;28;20955;-64
2022/07/02 03:20:47;;;;;;;4.83;4.43;;;13.00;99.90;;;;;;5073675;28;20454;-64
2022/07/02 03:23:15;;;;;;;5.87;4.47;;;12.90;99.90;;;;;;5073775;28;20439;-64
2022/07/02 03:25:43;;;;;;;5.70;4.37;;;13.00;99.90;;;;;;5072060;28;20475;-64
2022/07/02 03:28:10;;;;;;;5.50;5.10;;;13.00;99.90;;;;;;5072676;28;20550;-64
2022/07/02 03:30:37;;;;;;;5.80;4.90;;;13.10;99.90;;;;;;5072519;28;20467;-64
2022/07/02 03:33:05;;;;;;;5.33;4.83;;;13.10;99.90;;;;;;5072513;28;20479;-64
2022/07/02 03:35:32;;;;;;;5.00;4.60;;;13.10;99.90;;;;;;5072653;28;20881;-64
2022/07/02 03:38:01;;;;;;;7.90;5.50;;;13.10;99.90;;;;;;5073421;28;20443;-64
2022/07/02 03:40:31;;;;;;;5.23;4.70;;;13.20;99.90;;;;;;5072999;28;20459;-64
2022/07/02 03:42:58;;;;;;;5.60;5.10;;;13.20;99.90;;;;;;5073135;28;20449;-63
2022/07/02 03:45:25;;;;;;;5.93;5.33;;;13.20;99.90;;;;;;5071127;28;20600;-63
2022/07/02 03:47:53;;;;;;;6.40;5.83;;;13.20;99.90;;;;;;5072089;28;21009;-64
2022/07/02 03:50:20;;;;;;;6.63;5.30;;;13.30;99.90;;;;;;5074529;28;20463;-63
2022/07/02 03:52:47;;;;;;;6.00;5.43;;;13.30;99.90;;;;;;5076999;28;20463;-63
2022/07/02 03:55:15;;;;;;;4.77;4.47;;;13.40;99.90;;;;;;5079045;28;20548;-63
2022/07/02 03:57:43;;;;;;;8.53;4.77;;;13.60;99.90;;;;;;5079814;28;20480;-63
2022/07/02 04:00:11;;;;;;;5.67;4.53;;;14.10;99.90;;;;;;5079589;28;20509;-63
2022/07/02 04:02:39;;;;;;;5.40;4.90;;;14.80;99.90;;;;;;5071558;28;20463;-64
2022/07/02 04:05:07;;;;;;;4.13;3.83;;;15.60;99.90;;;;;;5071912;28;20513;-63
2022/07/02 04:09:56;;;;;;;3.47;3.17;;;17.00;98.20;;;;;;5101353;27;20561;-63
2022/07/02 04:12:23;;;;;;;3.83;2.73;;;17.60;96.60;;;;;;5090689;28;20462;-63
2022/07/02 04:14:50;;;;;;;3.90;3.57;;;18.10;94.80;;;;;;5090681;28;20454;-63
2022/07/02 04:17:18;;;;;;;3.63;3.33;;;18.60;92.90;;;;;;5091595;28;20885;-62
2022/07/02 04:19:45;;;;;;;6.47;2.90;;;19.00;91.20;;;;;;5070320;28;20848;-63
2022/07/02 04:22:12;;;;;;;3.70;3.00;;;19.30;89.50;;;;;;5089317;28;20954;-63
2022/07/02 04:24:39;;;;;;;4.33;2.77;;;19.50;86.40;;;;;;5089084;28;20466;-63
2022/07/02 04:27:08;;;;;;;3.00;2.50;;;19.70;83.70;;;;;;5089291;28;20573;-63
2022/07/02 04:29:36;;;;;;;4.80;3.30;;;19.80;80.70;;;;;;5089358;28;20476;-63
2022/07/02 04:32:03;;;;;;;2.70;2.50;;;19.90;78.70;;;;;;5075180;28;20490;-64
2022/07/02 04:34:30;;;;;;;4.20;2.60;;;19.90;77.40;;;;;;5075076;28;21011;-63
2022/07/02 04:36:57;;;;;;;3.80;2.50;;;20.00;76.10;;;;;;5071699;28;20538;-64
2022/07/02 04:39:25;;;;;;;2.93;2.63;;;20.30;74.30;;;;;;5082396;28;20515;-63
2022/07/02 04:41:52;;;;;;;2.80;2.57;;;20.40;72.30;;;;;;5088048;28;20469;-63
2022/07/02 04:44:21;;;;;;;3.37;2.80;;;20.60;70.60;;;;;;5088194;28;20515;-64
2022/07/02 04:46:48;;;;;;;3.83;2.60;;;20.90;68.80;;;;;;5099470;22;20487;-59
2022/07/02 04:49:15;;;;;;;3.70;2.20;;;21.20;66.60;;;;;;5084423;28;20493;-60
2022/07/02 04:51:43;;;;;;;3.00;2.17;;;21.30;65.20;;;;;;5087360;28;20492;-60
2022/07/02 04:54:10;;;;;;;2.57;2.37;;;21.30;64.30;;;;;;5087363;28;20524;-59
2022/07/02 04:56:37;;;;;;;5.43;2.80;;;21.40;63.30;;;;;;5086986;28;20568;-59
2022/07/02 04:59:04;;;;;;;3.10;2.23;;;21.40;62.80;;;;;;5086680;28;20530;-59
2022/07/02 05:01:33;;;;;;;4.00;2.57;;;21.30;62.40;;;;;;5053128;28;20450;-59
2022/07/02 05:04:01;;;;;;;4.23;2.13;;;21.20;62.20;;;;;;5070839;28;20455;-59
2022/07/02 05:06:28;;;;;;;2.57;2.37;;;21.30;62.10;;;;;;5079074;28;20479;-59
2022/07/02 05:08:55;;;;;;;2.70;2.37;;;21.40;61.40;;;;;;5087454;28;20510;-59
2022/07/02 05:11:22;;;;;;;4.30;2.47;;;21.70;60.70;;;;;;5085650;28;20666;-60
2022/07/02 05:13:51;;;;;;;4.40;2.87;;;21.90;59.60;;;;;;5086937;28;20465;-59
2022/07/02 05:16:18;;;;;;;2.30;2.10;;;22.10;58.90;;;;;;5068825;28;20490;-59
2022/07/02 05:18:47;;;;;;;2.60;2.10;;;22.20;58.40;;;;;;5072648;28;20462;-59
2022/07/02 05:21:14;;;;;;;2.23;1.97;;;22.40;57.60;;;;;;5072300;28;20468;-59
2022/07/02 05:23:41;;;;;;;6.03;2.57;;;22.60;57.10;;;;;;5073597;28;20520;-59
2022/07/02 05:26:09;;;;;;;3.30;2.47;;;22.70;56.40;;;;;;5073676;28;20464;-59
2022/07/02 05:28:36;;;;;;;2.40;2.17;;;22.70;56.10;;;;;;5073691;28;20567;-59
2022/07/02 05:31:03;;;;;;;5.33;2.60;;;22.80;55.60;;;;;;5071143;28;21070;-59
2022/07/02 05:33:31;;;;;;;5.63;2.20;;;22.90;55.10;;;;;;5063965;28;20516;-59
2022/07/02 05:35:59;;;;;;;3.00;1.80;;;23.00;54.60;;;;;;5065230;28;20547;-60
2022/07/02 05:38:27;;;;;;;2.90;1.67;;;23.10;54.30;;;;;;5068966;28;20488;-60
2022/07/02 05:40:54;;;;;;;2.10;1.90;;;23.10;53.90;;;;;;5068967;28;20510;-60
2022/07/02 05:43:21;;;;;;;3.40;1.70;;;23.10;53.70;;;;;;5056019;28;20443;-60
2022/07/02 05:45:49;;;;;;;2.27;1.87;;;23.10;53.50;;;;;;5068587;28;20455;-60
2022/07/02 05:48:17;;;;;;;3.10;1.70;;;23.00;53.30;;;;;;5072831;28;20488;-60
2022/07/02 05:50:45;;;;;;;2.20;1.97;;;22.90;53.30;;;;;;5055889;28;20847;-60
2022/07/02 05:53:14;;;;;;;2.50;1.77;;;23.00;53.30;;;;;;5055430;28;20536;-61
2022/07/02 05:55:41;;;;;;;2.53;1.60;;;23.10;53.10;;;;;;5054349;28;20469;-60
2022/07/02 05:58:08;;;;;;;2.87;1.63;;;23.10;52.80;;;;;;5064909;28;20585;-60
2022/07/02 06:00:35;;;;;;;3.50;1.77;;;23.10;52.50;;;;;;5070669;28;20462;-60
2022/07/02 06:03:03;;;;;;;4.03;1.80;;;22.90;52.80;;;;;;5063203;28;20479;-60
2022/07/02 06:08:16;;;;;;;5.57;1.87;;;22.80;52.70;;;;;;5071551;28;20480;-60
2022/07/02 06:10:44;;;;;;;4.40;1.70;;;22.60;53.00;;;;;;5073239;28;20638;-59
2022/07/02 06:13:11;;;;;;;2.60;1.60;;;22.40;53.50;;;;;;5062432;28;20462;-59
2022/07/02 06:15:38;;;;;;;3.37;1.60;;;22.30;53.80;;;;;;5058929;28;20952;-60
2022/07/02 06:18:06;;;;;;;2.83;1.70;;;22.20;54.00;;;;;;5061065;28;20633;-61
2022/07/02 06:20:33;;;;;;;3.70;1.67;;;22.10;54.20;;;;;;5052774;28;20819;-60
2022/07/02 06:23:00;;;;;;;2.97;1.93;;;22.00;54.20;;;;;;5062941;28;20801;-60
2022/07/02 06:25:29;;;;;;;4.17;1.53;;;21.90;54.40;;;;;;5073380;28;20966;-60
2022/07/02 06:27:56;;;;;;;2.70;1.53;;;22.00;54.30;;;;;;5062307;28;20531;-60
2022/07/02 06:30:24;;;;;;;1.70;1.33;;;22.10;53.90;;;;;;5072410;28;20519;-60
2022/07/02 06:32:51;;;;;;;1.70;1.37;;;22.10;53.70;;;;;;5071398;28;20953;-59
2022/07/02 06:35:18;;;;;;;5.93;1.50;;;22.00;53.60;;;;;;5074549;28;20515;-60
2022/07/02 06:37:46;;;;;;;3.23;1.70;;;22.00;53.40;;;;;;5074282;28;20558;-60
2022/07/02 06:40:13;;;;;;;3.43;1.40;;;21.90;53.40;;;;;;5074323;28;20442;-59
2022/07/02 06:42:42;;;;;;;4.10;1.50;;;21.70;53.50;;;;;;5058196;28;20472;-59
2022/07/02 06:45:10;;;;;;;4.10;1.43;;;21.40;53.60;;;;;;5053714;28;20531;-59
2022/07/02 06:47:40;;;;;;;1.90;1.40;;;21.10;53.80;;;;;;5051876;28;20544;-59
2022/07/02 06:50:09;;;;;;;2.50;1.43;;;20.90;54.20;;;;;;5052631;28;20857;-58
2022/07/02 06:52:37;;;;;;;2.80;1.40;;;20.80;54.60;;;;;;5054273;28;20458;-59
2022/07/02 06:55:05;;;;;;;4.20;1.40;;;20.80;54.80;;;;;;5060760;28;20466;-59
2022/07/02 06:57:33;;;;;;;2.47;1.67;;;20.80;54.80;;;;;;5052137;28;20556;-59
2022/07/02 07:00:01;;;;;;;2.47;1.50;;;20.90;54.70;;;;;;5053533;28;20447;-58
2022/07/02 07:02:29;;;;;;;6.70;1.30;;;20.90;54.40;;;;;;5052386;28;20457;-59
2022/07/02 07:04:57;;;;;;;1.53;1.40;;;21.00;54.00;;;;;;5045392;28;20472;-59
2022/07/02 07:07:27;;;;;;;1.40;1.00;;;21.00;53.70;;;;;;5050444;28;20894;-59
2022/07/02 07:09:55;;;;;;;2.30;0.90;;;21.10;53.40;;;;;;5052802;28;20481;-59
2022/07/02 07:12:22;;;;;;;1.43;0.83;;;21.20;52.70;;;;;;5053689;28;20477;-59
2022/07/02 07:14:49;;;;;;;2.50;1.50;;;21.20;51.80;;;;;;5057844;28;20462;-59
2022/07/02 07:17:18;;;;;;;2.07;1.27;;;21.30;51.30;;;;;;5064120;28;20495;-59
2022/07/02 07:19:45;;;;;;;2.30;1.10;;;21.40;50.90;;;;;;5053352;28;20936;-59
2022/07/02 07:22:13;;;;;;;2.80;1.23;;;21.40;50.30;;;;;;5053311;28;20538;-59
2022/07/02 07:24:40;;;;;;;1.53;1.00;;;21.40;50.10;;;;;;5053366;28;20450;-59
2022/07/02 07:27:07;;;;;;;1.77;1.07;;;21.40;50.00;;;;;;5055764;28;20543;-59
2022/07/02 07:29:35;;;;;;;1.67;0.90;;;21.50;49.80;;;;;;5051908;28;20473;-60
2022/07/02 07:32:03;;;;;;;1.40;1.30;;;21.70;49.20;;;;;;5052909;28;20451;-60
2022/07/02 07:34:31;;;;;;;2.93;1.20;;;22.00;48.50;;;;;;5062528;28;20473;-60
2022/07/02 07:36:58;;;;;;;2.00;1.20;;;22.20;47.90;;;;;;5068781;28;20557;-60
2022/07/02 07:39:26;;;;;;;3.10;1.40;;;22.40;47.50;;;;;;5072281;28;20535;-60
2022/07/02 07:41:53;;;;;;;3.50;1.20;;;22.50;47.30;;;;;;5072544;28;20555;-60
2022/07/02 07:44:20;;;;;;;3.07;1.40;;;22.60;47.30;;;;;;5072697;28;20450;-60
2022/07/02 07:46:48;;;;;;;4.30;1.60;;;22.80;47.90;;;;;;5072793;28;20482;-60
2022/07/02 07:49:15;;;;;;;1.80;1.33;;;22.80;47.30;;;;;;5073052;28;20507;-60
2022/07/02 07:51:44;;;;;;;3.03;1.50;;;22.90;47.50;;;;;;5072758;28;20450;-60
2022/07/02 07:54:11;;;;;;;3.03;1.30;;;22.90;47.50;;;;;;5072042;28;20896;-60
2022/07/02 07:56:41;;;;;;;2.83;1.57;;;23.00;47.60;;;;;;5056917;28;20906;-60
2022/07/02 07:59:08;;;;;;;2.77;1.47;;;22.90;47.20;;;;;;5052624;28;20458;-60
2022/07/02 08:01:35;;;;;;;2.43;1.50;;;22.80;47.30;;;;;;5054703;28;20525;-59
2022/07/02 08:04:03;;;;;;;2.10;1.00;;;22.80;47.30;;;;;;5072665;28;20558;-60
2022/07/02 08:06:31;;;;;;;1.63;1.50;;;22.90;47.10;;;;;;5072292;28;21012;-60
2022/07/02 08:09:00;;;;;;;6.60;1.77;;;22.80;46.90;;;;;;5060427;28;20459;-60
2022/07/02 08:11:27;;;;;;;2.57;1.30;;;22.80;47.00;;;;;;5052515;28;20473;-60
2022/07/02 08:13:55;;;;;;;2.57;1.33;;;22.80;47.10;;;;;;5052477;28;20459;-59
2022/07/02 08:16:23;;;;;;;2.20;1.20;;;23.00;47.00;;;;;;5052502;28;20514;-60
2022/07/02 08:18:50;;;;;;;2.77;1.50;;;23.10;46.90;;;;;;5052566;28;20506;-61
2022/07/02 08:21:17;;;;;;;3.40;1.40;;;23.20;47.00;;;;;;5052602;28;20443;-61
2022/07/02 08:23:45;;;;;;;3.20;1.63;;;23.40;46.80;;;;;;5051532;28;20509;-60
2022/07/02 08:26:13;;;;;;;4.30;1.60;;;23.90;46.60;;;;;;5052587;28;20519;-59
2022/07/02 08:28:41;;;;;;;3.40;1.63;;;24.30;46.00;;;;;;5054707;28;20949;-59
2022/07/02 08:31:09;;;;;;;2.13;1.10;;;24.40;45.30;;;;;;5072566;28;20924;-59
2022/07/02 08:33:36;;;;;;;4.53;1.33;;;24.40;44.80;;;;;;5070335;28;20464;-59
2022/07/02 08:36:03;;;;;;;2.13;1.07;;;24.60;44.60;;;;;;5071042;28;20466;-59
2022/07/02 08:38:31;;;;;;;2.63;1.33;;;24.80;43.60;;;;;;5071510;28;20529;-59
2022/07/02 08:40:58;;;;;;;3.07;1.73;;;25.20;42.80;;;;;;5072433;28;20486;-59
2022/07/02 08:43:28;;;;;;;2.00;1.20;;;25.60;42.10;;;;;;5072527;28;20502;-59
2022/07/02 08:45:59;;;;;;;2.50;1.60;;;25.90;41.70;;;;;;5072380;28;20455;-59
2022/07/02 08:48:29;;;;;;;2.00;1.37;;;25.90;41.60;;;;;;5071996;28;20455;-59
2022/07/02 08:50:58;;;;;;;3.00;1.30;;;25.70;41.70;;;;;;5072445;28;20488;-59
2022/07/02 08:53:25;;;;;;;3.50;1.33;;;25.40;42.40;;;;;;5072369;28;20777;-59
2022/07/02 08:55:54;;;;;;;3.10;1.30;;;25.10;42.90;;;;;;5074574;28;20548;-58
2022/07/02 08:58:23;;;;;;;3.93;1.40;;;24.90;43.40;;;;;;5076318;28;20526;-61
2022/07/02 09:00:52;;;;;;;3.43;1.63;;;24.70;43.70;;;;;;5076247;28;20442;-59
2022/07/02 09:03:21;;;;;;;2.40;1.37;;;24.40;43.90;;;;;;5075785;28;20499;-59
2022/07/02 09:05:51;;;;;;;3.03;2.03;;;24.40;44.40;;;;;;5075589;28;20444;-59
2022/07/02 09:08:18;;;;;;;2.23;1.23;;;24.50;44.30;;;;;;5075386;28;20554;-58
2022/07/02 09:10:47;;;;;;;3.60;1.60;;;24.50;44.10;;;;;;5075933;28;20482;-58
2022/07/02 09:13:16;;;;;;;3.63;1.70;;;24.40;44.10;;;;;;5075338;28;20505;-59
2022/07/02 09:15:44;;;;;;;2.13;1.53;;;24.30;44.30;;;;;;5076398;28;20441;-58
2022/07/02 09:18:13;;;;;;;2.40;1.77;;;24.10;44.50;;;;;;5075367;28;20511;-59
2022/07/02 09:20:40;;;;;;;2.40;1.60;;;24.10;44.30;;;;;;5077133;28;20517;-59
2022/07/02 09:23:10;;;;;;;1.87;1.30;;;24.20;43.90;;;;;;5076041;28;20442;-59
2022/07/02 09:25:37;;;;;;;1.80;1.10;;;24.30;43.40;;;;;;5075750;28;20439;-58
2022/07/02 09:28:06;;;;;;;1.57;1.23;;;24.20;42.90;;;;;;5075900;28;20515;-58
2022/07/02 09:30:36;;;;;;;2.10;1.27;;;24.20;42.90;;;;;;5075832;28;20479;-58
2022/07/02 09:35:50;;;;;;;3.87;0.90;;;24.40;42.40;;;;;;5075781;28;20995;-60
2022/07/02 09:38:17;;;;;;;1.90;1.30;;;24.40;41.90;;;;;;5075537;28;20517;-60
2022/07/02 09:40:54;;;;;;;2.73;1.10;;;24.50;41.70;;;;;;5075863;28;20449;-60
2022/07/02 09:43:29;;;;;;;3.33;1.27;;;24.50;41.60;;;;;;5075901;28;20497;-60
2022/07/02 09:45:56;;;;;;;1.83;1.20;;;24.40;41.70;;;;;;5075417;28;20427;-60
2022/07/02 09:48:24;;;;;;;2.70;1.60;;;24.40;41.70;;;;;;5075467;28;20477;-60
2022/07/02 09:50:53;;;;;;;1.83;1.13;;;24.40;41.70;;;;;;5074968;28;20542;-60
2022/07/02 09:53:20;;;;;;;4.90;1.33;;;24.20;41.90;;;;;;5076088;28;20493;-60
2022/07/02 09:55:50;;;;;;;2.50;1.33;;;24.30;42.00;;;;;;5075932;28;20452;-60
2022/07/02 09:58:25;;;;;;;4.53;1.80;;;24.40;41.90;;;;;;5074973;28;20467;-59
2022/07/02 10:00:52;;;;;;;2.83;1.80;;;24.50;42.00;;;;;;5074664;28;20534;-60
2022/07/02 10:03:19;;;;;;;3.07;1.60;;;24.70;42.20;;;;;;5074767;28;20978;-60
2022/07/02 10:05:50;;;;;;;5.73;1.70;;;25.10;42.00;;;;;;5074759;28;20445;-60
2022/07/02 10:08:19;;;;;;;2.87;1.63;;;25.50;41.50;;;;;;5074947;28;20466;-60
2022/07/02 10:10:47;;;;;;;2.17;1.40;;;25.70;40.80;;;;;;5074434;28;20480;-59
2022/07/02 10:13:15;;;;;;;5.63;1.97;;;25.60;40.70;;;;;;5074703;28;20462;-60
2022/07/02 10:15:59;;;;;;;1.40;1.07;;;25.30;41.00;;;;;;5074497;28;20450;-60
2022/07/02 10:18:27;;;;;;;1.53;1.23;;;25.10;42.10;;;;;;5074646;28;20441;-59
2022/07/02 10:20:56;;;;;;;2.17;1.30;;;25.00;41.50;;;;;;5074253;28;20931;-60
2022/07/02 10:23:25;;;;;;;2.63;1.47;;;25.00;41.70;;;;;;5074223;28;20544;-60
2022/07/02 10:25:54;;;;;;;6.13;1.57;;;25.10;41.70;;;;;;5074263;28;20526;-59
2022/07/02 10:28:21;;;;;;;3.53;1.47;;;25.30;41.50;;;;;;5074401;28;20852;-59
2022/07/02 10:30:49;;;;;;;2.70;1.47;;;25.40;41.10;;;;;;5074426;28;21000;-59
2022/07/02 10:33:25;;;;;;;1.33;1.23;;;25.40;40.80;;;;;;5074573;28;20466;-59
2022/07/02 10:35:53;;;;;;;2.33;1.40;;;25.40;40.60;;;;;;5074123;28;20430;-60
2022/07/02 10:38:30;;;;;;;2.87;1.33;;;25.40;40.40;;;;;;5073900;28;20469;-58
2022/07/02 10:40:57;;;;;;;1.73;1.50;;;25.70;40.40;;;;;;5073780;28;20487;-59
2022/07/02 10:43:28;;;;;;;2.13;1.10;;;25.90;39.80;;;;;;5074498;28;20443;-59
2022/07/02 10:46:04;;;;;;;1.40;1.03;;;26.20;39.60;;;;;;5073900;28;20561;-60
2022/07/02 10:48:33;;;;;;;2.00;1.27;;;26.20;39.30;;;;;;5109583;22;20857;-64
2022/07/02 10:51:01;;;;;;;3.73;1.40;;;25.90;39.40;;;;;;5074408;28;20492;-63
2022/07/02 10:53:30;;;;;;;1.93;1.20;;;25.60;39.70;;;;;;5073920;28;20474;-63
2022/07/02 10:56:02;;;;;;;1.40;1.00;;;25.50;39.80;;;;;;5074311;28;20483;-64
2022/07/02 10:58:30;;;;;;;1.77;1.43;;;25.40;39.70;;;;;;5074333;28;20512;-64
2022/07/02 11:00:57;;;;;;;2.30;1.10;;;25.50;39.50;;;;;;5074287;28;20927;-63
2022/07/02 11:03:26;;;;;;;2.50;1.30;;;25.90;39.10;;;;;;5073753;28;20446;-63
2022/07/02 11:06:04;;;;;;;2.20;1.40;;;26.30;38.60;;;;;;5073818;28;20448;-64
2022/07/02 11:08:48;;;;;;;3.20;2.27;;;26.50;38.20;;;;;;5073895;28;20546;-64
2022/07/02 11:11:22;;;;;;;2.10;1.47;;;26.80;38.00;;;;;;5073232;28;20466;-63
2022/07/02 11:13:51;;;;;;;1.77;1.33;;;27.00;37.60;;;;;;5073218;28;20475;-62
2022/07/02 11:16:23;;;;;;;1.57;1.30;;;27.10;37.20;;;;;;5073640;28;20994;-63
2022/07/02 11:18:52;;;;;;;3.37;1.50;;;27.40;36.80;;;;;;5072906;28;20552;-64
2022/07/02 11:21:20;;;;;;;1.33;1.20;;;27.60;36.40;;;;;;5073219;28;20449;-62
2022/07/02 11:23:50;;;;;;;1.80;1.23;;;27.70;36.30;;;;;;5073811;28;20501;-62
2022/07/02 11:26:22;;;;;;;2.63;1.47;;;27.80;36.20;;;;;;5073328;28;20479;-64
2022/07/02 11:28:50;;;;;;;2.57;1.50;;;27.90;36.00;;;;;;5073473;28;20466;-65
2022/07/02 11:31:18;;;;;;;2.10;1.10;;;28.10;35.70;;;;;;5073575;28;20920;-64
2022/07/02 11:33:47;;;;;;;3.10;1.20;;;28.20;35.40;;;;;;5073555;28;20451;-64
2022/07/02 11:36:15;;;;;;;1.80;1.30;;;28.20;35.40;;;;;;5073651;28;20495;-64
2022/07/02 11:38:45;;;;;;;2.60;1.20;;;28.10;35.50;;;;;;5073269;28;20520;-65
2022/07/02 11:41:22;;;;;;;2.33;1.37;;;28.10;35.30;;;;;;5073340;28;20482;-63
2022/07/02 11:43:50;;;;;;;1.60;1.30;;;27.80;35.50;;;;;;5073366;28;20480;-64
2022/07/02 11:46:20;;;;;;;3.83;1.70;;;27.50;35.60;;;;;;5073419;28;20542;-64
2022/07/02 11:48:48;;;;;;;2.07;1.10;;;27.30;36.00;;;;;;5072809;28;20979;-64
2022/07/02 11:51:15;;;;;;;2.30;1.40;;;27.30;35.80;;;;;;5073117;28;20492;-64
2022/07/02 11:53:43;;;;;;;2.73;1.60;;;27.10;35.90;;;;;;5073234;28;20449;-64
2022/07/02 11:56:13;;;;;;;2.23;1.30;;;26.90;36.20;;;;;;5073207;28;20472;-64
2022/07/02 11:58:44;;;;;;;1.40;0.93;;;26.70;36.70;;;;;;5072857;28;20468;-65
2022/07/02 12:01:25;;;;;;;2.73;1.50;;;26.70;36.80;;;;;;5072890;28;20424;-65
2022/07/02 12:03:54;;;;;;;2.47;1.37;;;26.80;36.50;;;;;;5072931;28;20429;-64
2022/07/02 12:06:22;;;;;;;1.63;1.10;;;27.40;35.80;;;;;;5073045;28;20452;-64
2022/07/02 12:08:53;;;;;;;1.47;0.93;;;27.80;35.10;;;;;;5072445;28;20508;-64
2022/07/02 12:11:22;;;;;;;1.67;1.00;;;27.80;34.90;;;;;;5072758;28;20469;-63
2022/07/02 12:13:52;;;;;;;1.57;1.33;;;27.80;34.50;;;;;;5072792;28;20448;-64
2022/07/02 12:16:21;;;;;;;2.07;1.60;;;27.70;34.30;;;;;;5072994;28;20436;-64
2022/07/02 12:19:00;;;;;;;1.53;1.10;;;27.80;34.80;;;;;;5073648;28;20491;-63
2022/07/02 12:21:36;;;;;;;1.50;1.13;;;28.60;34.20;;;;;;5073018;28;20511;-63
2022/07/02 12:24:05;;;;;;;3.37;1.30;;;29.70;33.10;;;;;;5073229;28;20434;-64
2022/07/02 12:26:33;;;;;;;2.77;1.47;;;30.40;31.80;;;;;;5073072;28;20484;-64
2022/07/02 12:31:51;;;;;;;1.10;1.00;;;30.60;30.90;;;;;;5074404;28;20855;-64
2022/07/02 12:34:19;;;;;;;1.60;1.50;;;30.00;31.50;;;;;;5076504;28;20450;-64
2022/07/02 12:36:54;;;;;;;4.67;1.13;;;29.80;31.90;;;;;;5076480;28;20977;-64
2022/07/02 12:39:22;;;;;;;2.87;1.30;;;30.20;31.20;;;;;;5075147;28;20468;-64
2022/07/02 12:41:50;;;;;;;3.13;1.20;;;30.80;30.50;;;;;;5076770;28;20447;-63
2022/07/02 12:44:21;;;;;;;1.90;1.00;;;31.30;30.00;;;;;;5076328;28;20811;-66
2022/07/02 12:46:50;;;;;;;2.23;1.00;;;31.50;29.90;;;;;;5076117;28;20426;-64
2022/07/02 12:49:20;;;;;;;1.40;1.20;;;31.30;29.80;;;;;;5076415;28;20484;-64
2022/07/02 12:52:02;;;;;;;1.47;1.13;;;31.10;29.80;;;;;;5074569;28;20533;-64
2022/07/02 12:54:37;;;;;;;1.70;1.30;;;30.80;29.90;;;;;;5076252;28;20476;-64
2022/07/02 12:57:14;;;;;;;1.90;1.37;;;30.30;30.10;;;;;;5076193;28;20478;-65
2022/07/02 12:59:44;;;;;;;1.43;1.10;;;29.90;30.70;;;;;;5076455;28;20453;-65
2022/07/02 13:02:16;;;;;;;2.83;1.53;;;29.60;31.20;;;;;;5076130;28;20444;-64
2022/07/02 13:04:44;;;;;;;1.30;1.20;;;29.30;31.50;;;;;;5074923;28;20501;-64
2022/07/02 13:07:15;;;;;;;1.43;1.23;;;29.10;32.00;;;;;;5075922;28;20473;-65